Huvudsida
METAR-TAF:

METAR-TAF

Flygplatser :

Honningsvågs flygplats. Valan

Honningsvåg, Norge

latitud: 71-01N, longitud: 025-59E, höjd: 1 m

Aktuellt väderrapport

Denna rapport gjordes för 27 minuter sedan, klockan 19:50 UTC
Vind 10 kt från väst
Temperatur 12°C
Fuktighet 82%
Tryck 1016 hPa
Sikt 10 km eller mer
Mulet på en höjd av 1300 ft

METAR: ENHV 141950Z 27010KT 9999 OVC013 12/09 Q1016

Tid: 22:17 (20:17 UTC)

Väderprognos

Denna rapport gjordes för 4 timmar och 26 minuter sedan, klockan 15:51 UTC
Prognos gäller från 14 kl. 15 UTC till 14 kl. 22 UTC
Vind 15 kt från väst/nordväst
Sikt 10 km eller mer
Inga moln under 1 500 m eller inga cumulonimbus
Sannolikhet 30%
från 14 kl. 20 UTC till 14 kl. 22 UTC
Sikt 10 km eller mer
Brutna moln på en höjd av 1200 ft

TAF: ENHV 141551Z 1415/1422 30015KT CAVOK PROB30 1420/1422 9999 BKN012

Aktuella väderrapporter och prognoser från 4000 flygplatser (METAR- och TAF-rapporter).

De tillgängliga stationerna syns som gula och röda prickar på kartan.

För musen över prickarna för att se namnen på stationerna.

Klicka sedan för att få väderrapporter och prognoser.

För att ändra kartan: Klicka på de gröna knapparna med ett svart kors på för att zooma in; den gröna knappen med ett streck på för att zooma ut; eller på de gröna pilarna för angränsande kartor.


METAR-TAF: